Flight Track Log - Related Links

Times and Time Zones

All times are in EDT time to prevent confusion due to time zone crossing. See the SWA1718 flight status page for this flight to view local times or setup timezone preferences in your user account.

Time Position Orientation Groundspeed Altitude Reporting Facility
EDT Latitude Longitude Course Direction KTS MPH feet Rate Location/Type
Thu 03:27:56 PM 32.8667 -96.8500 292° West 115 132 1,300  Level Dallas / Fort Worth TRACON
Thu 03:28:50 PM 32.8833 -96.9000 292° West 178 205 3,100 2,092 Climbing Dallas / Fort Worth TRACON
Thu 03:29:45 PM 32.9167 -96.9333 320° Northwest 225 259 5,100 2,609 Climbing Dallas / Fort Worth TRACON
Thu 03:30:45 PM 32.9667 -97.0000 312° West 231 266 8,100 2,928 Climbing Dallas / Fort Worth TRACON
Thu 03:31:50 PM 33.0167 -97.0500 320° Northwest 236 272 11,200 2,226 Climbing Dallas / Fort Worth TRACON
Thu 03:33:51 PM 33.0400 -97.2450 278° West 360 414 15,000 2,453 Climbing Fort Worth Center
Thu 03:34:51 PM 33.0464 -97.3392 275° West 311 358 18,600 2,250 Climbing Fort Worth Center
Thu 03:35:51 PM 33.0567 -97.4433 277° West 294 338 19,500 950 Climbing Fort Worth Center
Thu 03:36:51 PM 33.0711 -97.5622 278° West 348 400 20,500 1,100 Climbing Fort Worth Center
Thu 03:37:51 PM 33.0856 -97.6936 278° West 397 457 21,700 1,550 Climbing Fort Worth Center
Thu 03:38:51 PM 33.1186 -97.8253 287° West 413 475 23,600 1,850 Climbing Fort Worth Center
Thu 03:39:51 PM 33.1619 -97.9569 291° West 425 489 25,400 1,700 Climbing Fort Worth Center
Thu 03:40:51 PM 33.2031 -98.0864 291° West 430 495 27,000 1,950 Climbing Fort Worth Center
Thu 03:41:51 PM 33.2442 -98.2181 291° West 425 489 29,300 2,050 Climbing Fort Worth Center
Thu 03:42:51 PM 33.2828 -98.3428 290° West 413 475 31,100 1,550 Climbing Fort Worth Center
Thu 03:43:51 PM 33.3175 -98.4550 290° West 406 467 32,400 1,200 Climbing Fort Worth Center
Thu 03:44:51 PM 33.3561 -98.5772 291° West 406 467 33,500 800 Climbing Fort Worth Center
Thu 03:45:51 PM 33.3944 -98.7022 290° West 406 467 34,000 200 Climbing Fort Worth Center
Thu 03:46:51 PM 33.4328 -98.8272 290° West 406 467 33,900  Descending Fort Worth Center
Thu 03:47:51 PM 33.4711 -98.9500 291° West 406 467 34,000 50 Climbing Fort Worth Center
Thu 03:48:51 PM 33.5153 -99.0703 294° West 406 467 34,000  Level Fort Worth Center
Thu 03:49:51 PM 33.5828 -99.1764 307° West 399 459 34,000  Level Fort Worth Center
Thu 03:50:51 PM 33.6481 -99.2850 306° West 399 459 34,000  Level Fort Worth Center
Thu 03:51:51 PM 33.7131 -99.3886 307° West 404 465 34,000  Level Fort Worth Center
Thu 03:52:51 PM 33.7783 -99.4975 306° West 404 465 34,000  Level Fort Worth Center
Thu 03:53:51 PM 33.8453 -99.6067 306° West 404 465 34,000  Level Fort Worth Center
Thu 03:54:51 PM 33.9122 -99.7161 306° West 404 465 34,000  Level Fort Worth Center
Thu 03:55:51 PM 33.9769 -99.8206 307° West 404 465 34,000  Level Fort Worth Center
Thu 03:56:51 PM 34.0394 -99.9275 305° West 404 465 34,000  Level Fort Worth Center
Thu 03:57:51 PM 34.1061 -100.0372 306° West 404 465 34,000 -300 Level Fort Worth Center
Thu 03:58:51 PM 34.1728 -100.1422 308° West 404 465 33,400 -800 Descending Fort Worth Center
Thu 04:00:36 PM 34.2831 -100.3331 305° West 404 465 31,800 -898 Descending Albuquerque Center
Thu 04:01:38 PM 34.3500 -100.4433 306° West 407 468 30,900 -1,016 Descending Albuquerque Center
Thu 04:02:40 PM 34.4306 -100.5767 306° West 408 470 29,700 -1,065 Descending Albuquerque Center
Thu 04:03:42 PM 34.4969 -100.6911 305° West 413 475 28,700 -1,210 Descending Albuquerque Center
Thu 04:04:44 PM 34.5639 -100.8019 306° West 410 472 27,200 -2,488 Descending Albuquerque Center
Thu 04:05:45 PM 34.6311 -100.9161 306° West 414 476 23,600 -3,073 Descending Albuquerque Center
Thu 04:06:47 PM 34.6936 -101.0253 305° West 402 463 20,900 -2,565 Descending Albuquerque Center
Thu 04:07:49 PM 34.7539 -101.1267 306° West 376 433 18,300 -2,468 Descending Albuquerque Center
Thu 04:08:51 PM 34.8111 -101.2250 305° West 361 415 15,800 -2,855 Descending Albuquerque Center
Thu 04:09:53 PM 34.8786 -101.3411 305° West 351 404 12,400 -2,468 Descending Albuquerque Center
Thu 04:10:55 PM 34.9322 -101.4331 305° West 342 394 10,700 -1,161 Descending Albuquerque Center
Thu 04:11:57 PM 34.9769 -101.5103 305° West 306 352 10,000 -1,113 Descending Albuquerque Center
Thu 04:12:59 PM 35.0167 -101.5803 305° West 270 311 8,400 -1,548 Descending Albuquerque Center
Thu 04:14:01 PM 35.0578 -101.6506 306° West 258 297 6,800 -1,512 Descending Albuquerque Center
Thu 04:15:02 PM 35.0975 -101.7206 305° West 252 290 5,300 -780 Descending Albuquerque Center
Thu 04:16:04 PM 35.1356 -101.7667 315° West 215 247 5,200 -387 Descending Albuquerque Center
Thu 04:17:06 PM 35.1700 -101.7664 360° North 157 181 4,500 -726 Descending Albuquerque Center
Thu 04:18:08 PM 35.2036 -101.7347 38° Northeast 134 154 3,700 -774 Descending Albuquerque Center

Login

Don't have an account? Register now (free) for customized features, flight alerts, and more!